Weer

Current Metar

EHAM: EHAM 210055Z 32003KT 9000 NSC 07/05 Q1017 NOSIG
EHRD: EHRD 210055Z AUTO 29001KT 2500 BR FEW015CB 06/06 Q1017 TEMPO 4000 MIFG
EHGG: EHGG 210055Z AUTO 06002KT 9999 NCD 03/02 Q1016
EHEH: EHEH 210055Z AUTO 25001KT 7000 BR NCD 05/03 Q1016 WHT
EHBK: EHBK 210055Z AUTO 21004KT 9999 NSC 07/03 Q1016

Search METAR


Wind Charts

+ 0600h
FL100 FL180 FL240 FL300 FL340

+ 1200h
FL100 FL180 FL240 FL300 FL340

+ 1800h
FL100 FL180 FL240 FL300 FL340

+ 2400h
FL100 FL180 FL240 FL300 FL340

Europe & Africa charts only, updated daily.

 

Weather Services

MET Office